CDT,Max TemperatureF,Mean TemperatureF,Min TemperatureF,Max Dew PointF,MeanDew PointF,Min DewpointF,Max Humidity, Mean Humidity, Min Humidity, Max Sea Level PressureIn, Mean Sea Level PressureIn, Min Sea Level PressureIn, Max VisibilityMiles, Mean VisibilityMiles, Min VisibilityMiles, Max Wind SpeedMPH, Mean Wind SpeedMPH, Max Gust SpeedMPH,PrecipitationIn, CloudCover, Events, WindDirDegrees
2012-10-1,67,56,44,46,36,28,86,55,24,30.22,30.10,29.86,10,10,10,20,11,25,0.00,0,,251
2012-10-2,71,59,46,41,36,30,61,45,29,29.86,29.69,29.57,10,10,10,30,17,43,0.00,0,,251
2012-10-3,47,42,37,40,37,34,93,82,70,30.32,30.11,29.87,10,8,5,23,13,29,1.24,7,Rain,337
2012-10-4,44,36,28,34,29,21,92,71,49,30.38,30.34,30.27,10,10,10,24,16,32,0.00,5,,313
2012-10-5,42,33,24,27,21,18,81,63,44,30.46,30.41,30.33,10,10,7,21,13,26,T,6,,303
2012-10-6,48,36,23,24,20,11,81,52,23,30.45,30.33,30.11,10,10,10,17,9,23,0.00,1,,246
2012-10-7,56,47,37,39,30,25,83,59,35,30.07,29.89,29.68,10,10,10,18,10,23,T,6,,246
2012-10-8,55,46,37,41,34,25,83,62,41,29.76,29.66,29.54,10,10,10,33,20,41,0.01,5,,276
2012-10-9,44,38,32,32,31,26,96,75,53,30.07,29.94,29.72,10,9,2,33,14,41,0.01,7,Snow,295
2012-10-10,40,35,30,36,33,25,92,81,70,30.10,29.96,29.85,10,9,2,18,8,24,0.07,6,Rain-Snow,2
2012-10-11,42,34,26,32,27,21,89,69,48,30.38,30.29,30.05,10,10,7,16,7,21,0.01,4,Snow,304
2012-10-12,58,43,28,33,29,23,85,61,36,30.32,29.94,29.62,10,10,10,30,14,38,0.00,2,,155
2012-10-13,60,49,37,37,35,34,85,62,39,29.94,29.75,29.61,10,10,10,18,10,22,0.00,0,,275
2012-10-14,65,48,30,39,35,29,96,67,37,30.01,29.94,29.84,10,10,8,12,5,14,0.00,1,,222
2012-10-15,74,61,48,42,40,38,66,49,31,29.83,29.64,29.55,10,10,10,23,11,31,T,3,Rain,224
2012-10-16,66,53,39,52,45,37,93,68,42,29.59,29.39,29.21,10,10,5,18,8,22,0.08,3,Rain,207
2012-10-17,53,46,39,49,39,36,92,83,74,29.47,29.31,29.18,10,9,3,44,30,54,0.14,7,Rain,275
2012-10-18,46,42,38,38,36,34,92,81,70,30.00,29.75,29.48,10,9,6,43,27,55,0.07,8,Rain,308
2012-10-19,45,39,32,33,31,28,92,79,65,29.99,29.86,29.66,10,10,10,22,7,26,0.00,4,,5
2012-10-20,64,49,34,42,37,32,96,68,40,29.64,29.55,29.49,10,10,10,15,7,18,0.00,1,,175
2012-10-21,52,43,34,40,32,27,82,62,42,30.12,29.92,29.63,10,10,10,18,8,23,0.00,5,,308
2012-10-22,43,37,31,36,30,26,89,73,57,30.16,30.07,29.81,10,10,10,18,6,25,0.05,8,Rain,65
2012-10-23,47,41,34,45,40,30,100,90,79,29.88,29.72,29.63,10,5,0,25,9,31,0.19,7,Fog-Rain-Thunderstorm,17
2012-10-24,35,33,30,30,25,23,85,75,64,30.11,30.00,29.84,10,10,10,23,13,29,0.00,7,,264
2012-10-25,35,33,31,25,23,20,72,66,59,30.28,30.14,30.02,10,10,10,35,23,44,0.00,8,,284
2012-10-26,33,28,22,23,19,13,81,63,45,30.37,30.32,30.22,10,9,0,25,13,35,T,6,Snow,270
2012-10-27,31,24,17,19,16,12,81,64,47,30.35,30.31,30.25,10,10,10,8,3,12,0.00,6,,282
2012-10-28,29,22,14,28,22,11,92,85,78,30.34,30.19,30.07,10,6,1,17,9,22,0.02,7,Snow,88
2012-10-29,39,34,29,38,32,27,100,96,92,30.13,30.07,30.01,8,2,0,15,7,20,0.13,8,Fog-Rain,97
2012-10-30,56,45,33,47,39,33,100,86,72,30.04,29.98,29.93,10,3,0,12,4,15,0.00,4,Fog,132
2012-10-31,45,37,28,41,34,24,100,90,79,30.22,30.04,29.93,10,8,0,24,9,31,0.00,5,Fog,326